Time;durP1;ratioP1;P1;durP2;ratioP2;P2;SDS_P1;SDS_P2;PMS_P1;PMS_P2;Temp;Humidity;BMP_temperature;BMP_pressure;BME280_temperature;BME280_humidity;BME280_pressure;Samples;Min_cycle;Max_cycle;Signal;HPM_P1;HPM_P2
2024/02/14 00:01:31;;;;;;;5.10;4.17;;;21.50;55.30;;;;;;5056003;28;20198;-70
2024/02/14 00:03:56;;;;;;;4.90;3.90;;;21.50;55.40;;;;;;5056181;28;20803;-70
2024/02/14 00:06:23;;;;;;;5.73;4.20;;;21.50;55.30;;;;;;5056114;28;20171;-70
2024/02/14 00:08:49;;;;;;;4.50;3.53;;;21.50;55.30;;;;;;5054684;28;20187;-70
2024/02/14 00:11:14;;;;;;;5.20;3.83;;;21.50;55.30;;;;;;5056590;28;20472;-70
2024/02/14 00:13:40;;;;;;;5.20;4.10;;;21.50;55.30;;;;;;5056166;28;20183;-69
2024/02/14 00:16:06;;;;;;;6.20;4.47;;;21.50;55.30;;;;;;5056304;28;20182;-71
2024/02/14 00:18:32;;;;;;;5.20;4.50;;;21.50;55.30;;;;;;5055969;28;20417;-71
2024/02/14 00:20:58;;;;;;;5.10;3.63;;;21.50;55.50;;;;;;5055516;28;20625;-71
2024/02/14 00:23:24;;;;;;;5.17;4.10;;;21.50;55.40;;;;;;5055541;28;20417;-71
2024/02/14 00:25:49;;;;;;;6.70;4.20;;;21.40;55.30;;;;;;5055813;28;20253;-71
2024/02/14 00:28:15;;;;;;;6.20;4.20;;;21.40;55.30;;;;;;5056162;28;20492;-71
2024/02/14 00:30:40;;;;;;;4.30;3.60;;;21.50;55.40;;;;;;5054276;28;20175;-71
2024/02/14 00:33:06;;;;;;;5.00;4.03;;;21.40;55.30;;;;;;5055452;28;20643;-72
2024/02/14 00:35:32;;;;;;;6.20;4.00;;;21.40;55.30;;;;;;5056312;28;20250;-71
2024/02/14 00:37:57;;;;;;;5.23;4.27;;;21.40;55.30;;;;;;5055350;28;20183;-71
2024/02/14 00:40:23;;;;;;;4.17;3.77;;;21.40;55.30;;;;;;5055570;28;20175;-71
2024/02/14 00:42:49;;;;;;;6.97;4.33;;;21.40;55.30;;;;;;5055573;28;20210;-70
2024/02/14 00:45:15;;;;;;;4.53;3.77;;;21.40;55.40;;;;;;5055547;28;20206;-71
2024/02/14 00:47:40;;;;;;;4.47;4.07;;;21.40;55.30;;;;;;5055034;28;20225;-71
2024/02/14 00:50:07;;;;;;;4.80;3.80;;;21.40;55.30;;;;;;5055514;28;20876;-71
2024/02/14 00:52:32;;;;;;;8.43;4.40;;;21.40;55.30;;;;;;5055400;28;20278;-71
2024/02/14 00:54:58;;;;;;;4.70;3.50;;;21.40;55.30;;;;;;5055366;28;21082;-71
2024/02/14 00:57:26;;;;;;;4.63;4.00;;;21.40;55.30;;;;;;5055329;28;20186;-71
2024/02/14 00:59:53;;;;;;;5.03;4.20;;;21.40;55.30;;;;;;5055143;28;20185;-71
2024/02/14 01:02:19;;;;;;;4.90;4.10;;;21.40;55.30;;;;;;5054928;28;20762;-71
2024/02/14 01:04:44;;;;;;;3.77;3.40;;;21.40;55.30;;;;;;5055445;28;20504;-71
2024/02/14 01:07:10;;;;;;;4.20;3.80;;;21.40;55.30;;;;;;5055411;28;20414;-71
2024/02/14 01:09:36;;;;;;;4.73;3.77;;;21.40;55.30;;;;;;5055741;28;20246;-71
2024/02/14 01:12:02;;;;;;;5.20;3.87;;;21.40;55.30;;;;;;5054921;28;20245;-71
2024/02/14 01:14:27;;;;;;;4.40;3.40;;;21.40;55.40;;;;;;5054784;28;20432;-70
2024/02/14 01:16:54;;;;;;;4.67;3.90;;;21.30;55.30;;;;;;5054802;28;20414;-71
2024/02/14 01:19:19;;;;;;;5.90;4.60;;;21.40;55.30;;;;;;5054769;28;20700;-70
2024/02/14 01:21:48;;;;;;;4.87;3.80;;;21.40;55.30;;;;;;5054731;28;20433;-70
2024/02/14 01:24:14;;;;;;;4.60;3.40;;;21.40;55.30;;;;;;5054830;28;20256;-72
2024/02/14 01:26:40;;;;;;;4.57;3.90;;;21.30;55.30;;;;;;5054786;28;20840;-71
2024/02/14 01:29:06;;;;;;;5.20;3.40;;;21.40;55.40;;;;;;5055068;28;20432;-71
2024/02/14 01:31:33;;;;;;;4.17;3.47;;;21.30;55.30;;;;;;5054620;28;20249;-71
2024/02/14 01:33:59;;;;;;;4.80;4.20;;;21.40;55.30;;;;;;5054729;28;20221;-71
2024/02/14 01:36:24;;;;;;;5.03;3.70;;;21.30;55.30;;;;;;5054057;28;20768;-71
2024/02/14 01:38:50;;;;;;;6.23;4.63;;;21.30;55.30;;;;;;5054434;28;20420;-70
2024/02/14 01:41:15;;;;;;;4.10;3.63;;;21.30;55.30;;;;;;5054620;28;20203;-71
2024/02/14 01:43:41;;;;;;;4.60;3.40;;;21.30;55.30;;;;;;5054313;28;20689;-72
2024/02/14 01:46:07;;;;;;;3.63;3.30;;;21.30;55.30;;;;;;5054782;28;20181;-71
2024/02/14 01:48:37;;;;;;;4.93;3.50;;;21.30;55.30;;;;;;5054641;28;20254;-70
2024/02/14 01:51:04;;;;;;;5.17;3.87;;;21.30;55.30;;;;;;5054220;28;20416;-71
2024/02/14 01:53:31;;;;;;;3.47;3.00;;;21.30;55.30;;;;;;5053689;28;20464;-71
2024/02/14 01:56:00;;;;;;;4.23;3.30;;;21.30;55.30;;;;;;5053588;28;20401;-71
2024/02/14 01:58:27;;;;;;;4.20;3.80;;;21.30;55.30;;;;;;5052980;28;20418;-71
2024/02/14 02:00:56;;;;;;;3.87;3.47;;;21.30;55.30;;;;;;5053682;28;20417;-69
2024/02/14 02:03:23;;;;;;;4.20;3.77;;;21.30;55.40;;;;;;5052188;28;20413;-71
2024/02/14 02:05:49;;;;;;;4.57;3.50;;;21.30;55.30;;;;;;5053830;28;20402;-69
2024/02/14 02:08:15;;;;;;;5.30;3.40;;;21.30;55.30;;;;;;5053304;28;20942;-71
2024/02/14 02:10:41;;;;;;;4.17;3.00;;;21.30;55.30;;;;;;5053238;28;20225;-71
2024/02/14 02:13:08;;;;;;;4.80;3.60;;;21.30;55.30;;;;;;5053394;28;20429;-69
2024/02/14 02:15:34;;;;;;;5.40;3.73;;;21.30;55.30;;;;;;5053367;28;20287;-71
2024/02/14 02:18:01;;;;;;;4.47;3.60;;;21.30;55.30;;;;;;5053645;28;20505;-69
2024/02/14 02:20:27;;;;;;;4.63;3.90;;;21.30;55.30;;;;;;5053700;28;20201;-71
2024/02/14 02:22:53;;;;;;;3.63;3.30;;;21.30;55.30;;;;;;5053557;28;20978;-72
2024/02/14 02:25:23;;;;;;;4.10;3.70;;;21.30;55.30;;;;;;5053665;28;20453;-71
2024/02/14 02:27:49;;;;;;;3.83;3.20;;;21.30;55.30;;;;;;5053758;28;20646;-70
2024/02/14 02:30:14;;;;;;;4.73;3.33;;;21.30;55.30;;;;;;5053666;28;20524;-71
2024/02/14 02:32:42;;;;;;;4.17;3.50;;;21.30;55.30;;;;;;5053495;28;20214;-70
2024/02/14 02:35:09;;;;;;;4.00;3.60;;;21.30;55.30;;;;;;5053591;28;20176;-71
2024/02/14 02:37:35;;;;;;;4.50;3.77;;;21.20;55.30;;;;;;5053193;28;21054;-70
2024/02/14 02:40:01;;;;;;;4.60;3.80;;;21.20;55.30;;;;;;5053372;28;20508;-70
2024/02/14 02:42:27;;;;;;;4.10;3.20;;;21.20;55.30;;;;;;5053450;28;20508;-71
2024/02/14 02:44:52;;;;;;;4.47;2.90;;;21.20;55.30;;;;;;5053895;28;20637;-69
2024/02/14 02:47:18;;;;;;;3.20;2.90;;;21.20;55.30;;;;;;5053278;28;20493;-71
2024/02/14 02:49:44;;;;;;;4.57;3.30;;;21.30;55.30;;;;;;5053307;28;20181;-70
2024/02/14 02:52:13;;;;;;;3.77;3.37;;;21.20;55.30;;;;;;5053138;28;20195;-70
2024/02/14 02:54:43;;;;;;;4.70;3.33;;;21.20;55.30;;;;;;5053141;28;21006;-71
2024/02/14 02:57:10;;;;;;;5.20;4.30;;;21.20;55.30;;;;;;5053013;28;20402;-70
2024/02/14 02:59:36;;;;;;;4.37;3.97;;;21.20;55.30;;;;;;5052900;28;20416;-70
2024/02/14 03:02:02;;;;;;;5.33;3.70;;;21.20;55.30;;;;;;5052749;28;20443;-68
2024/02/14 03:04:29;;;;;;;3.57;2.90;;;21.20;55.30;;;;;;5052972;28;20465;-70
2024/02/14 03:06:55;;;;;;;3.53;3.03;;;21.20;55.30;;;;;;5052898;28;20870;-70
2024/02/14 03:09:22;;;;;;;3.67;3.10;;;21.20;55.30;;;;;;5052859;28;20414;-70
2024/02/14 03:11:48;;;;;;;4.27;3.67;;;21.20;55.30;;;;;;5052808;28;20197;-70
2024/02/14 03:14:14;;;;;;;3.70;2.87;;;21.20;55.30;;;;;;5052898;28;20406;-70
2024/02/14 03:16:40;;;;;;;3.53;2.97;;;21.20;55.30;;;;;;5052806;28;20535;-71
2024/02/14 03:19:06;;;;;;;3.67;2.90;;;21.20;55.30;;;;;;5052870;28;20796;-68
2024/02/14 03:21:35;;;;;;;3.93;3.53;;;21.20;55.30;;;;;;5052882;28;20440;-70
2024/02/14 03:24:04;;;;;;;5.07;3.03;;;21.20;55.90;;;;;;5053282;28;20203;-72
2024/02/14 03:26:33;;;;;;;4.27;3.10;;;21.20;55.30;;;;;;5052970;28;20440;-71
2024/02/14 03:29:00;;;;;;;4.63;3.07;;;21.20;55.30;;;;;;5052590;28;20815;-71
2024/02/14 03:31:26;;;;;;;3.53;2.93;;;21.20;55.30;;;;;;5052394;28;20429;-71
2024/02/14 03:33:52;;;;;;;3.33;2.90;;;21.20;55.30;;;;;;5052551;28;20786;-69
2024/02/14 03:36:18;;;;;;;2.40;2.20;;;21.10;55.20;;;;;;5051449;28;20183;-70
2024/02/14 03:38:46;;;;;;;4.93;3.17;;;21.20;55.30;;;;;;5051160;28;20413;-70
2024/02/14 03:41:13;;;;;;;3.67;3.00;;;21.20;55.30;;;;;;5052644;28;20452;-71
2024/02/14 03:43:38;;;;;;;4.60;3.80;;;21.10;55.20;;;;;;5052871;28;20485;-70
2024/02/14 03:46:05;;;;;;;3.63;2.57;;;21.10;55.20;;;;;;5052549;28;20806;-70
2024/02/14 03:48:30;;;;;;;4.20;3.47;;;21.10;55.20;;;;;;5052316;28;20209;-69
2024/02/14 03:50:57;;;;;;;3.70;2.93;;;21.10;55.20;;;;;;5052568;28;20409;-70
2024/02/14 03:53:23;;;;;;;3.40;2.90;;;21.10;55.20;;;;;;5052636;28;20544;-69
2024/02/14 03:55:49;;;;;;;2.97;2.73;;;21.10;55.20;;;;;;5052729;28;20406;-71
2024/02/14 03:58:17;;;;;;;4.47;3.27;;;21.10;55.20;;;;;;5052979;28;20416;-71
2024/02/14 04:00:43;;;;;;;3.90;2.83;;;21.10;55.20;;;;;;5052725;28;20516;-71
2024/02/14 04:03:12;;;;;;;4.13;3.10;;;21.10;55.20;;;;;;5052706;28;20915;-72
2024/02/14 04:05:38;;;;;;;3.63;2.90;;;21.10;55.20;;;;;;5052428;28;20453;-71
2024/02/14 04:08:03;;;;;;;4.67;3.10;;;21.10;55.20;;;;;;5052035;28;20979;-71
2024/02/14 04:10:29;;;;;;;3.60;2.90;;;21.10;55.20;;;;;;5052171;28;20174;-72
2024/02/14 04:12:55;;;;;;;4.10;3.20;;;21.10;55.30;;;;;;5052214;28;20554;-72
2024/02/14 04:15:21;;;;;;;3.70;3.10;;;21.10;55.20;;;;;;5051970;28;20227;-71
2024/02/14 04:17:46;;;;;;;3.70;2.80;;;21.10;55.30;;;;;;5050924;28;20186;-71
2024/02/14 04:20:12;;;;;;;4.00;3.27;;;21.10;55.20;;;;;;5052242;28;20242;-71
2024/02/14 04:22:38;;;;;;;4.40;3.50;;;21.10;55.20;;;;;;5054657;28;20199;-71
2024/02/14 04:25:04;;;;;;;4.33;3.30;;;21.10;55.20;;;;;;5056091;28;20195;-72
2024/02/14 04:27:29;;;;;;;3.83;3.00;;;21.10;55.20;;;;;;5054723;28;20179;-71
2024/02/14 04:29:55;;;;;;;3.17;2.67;;;21.10;55.20;;;;;;5055811;28;20420;-71
2024/02/14 04:32:21;;;;;;;2.60;2.40;;;21.10;55.80;;;;;;5055552;28;20194;-71
2024/02/14 04:34:46;;;;;;;3.83;3.03;;;21.10;55.20;;;;;;5055632;28;20202;-71
2024/02/14 04:37:15;;;;;;;3.27;2.50;;;21.10;55.20;;;;;;5055984;28;20186;-71
2024/02/14 04:39:41;;;;;;;3.17;2.77;;;21.10;55.20;;;;;;5055331;28;20198;-71
2024/02/14 04:42:07;;;;;;;4.47;3.80;;;21.10;55.20;;;;;;5055341;28;20429;-71
2024/02/14 04:44:34;;;;;;;3.27;2.90;;;21.10;55.20;;;;;;5055003;28;20449;-71
2024/02/14 04:47:00;;;;;;;3.00;2.40;;;21.10;55.30;;;;;;5055832;28;20175;-72
2024/02/14 04:49:26;;;;;;;3.10;2.67;;;21.10;55.30;;;;;;5055213;28;21030;-71
2024/02/14 04:51:52;;;;;;;3.27;2.97;;;21.10;55.20;;;;;;5055107;28;20202;-71
2024/02/14 04:54:18;;;;;;;3.30;2.97;;;21.10;55.30;;;;;;5055133;28;20437;-71
2024/02/14 04:56:45;;;;;;;4.27;2.67;;;21.10;55.20;;;;;;5055297;28;20424;-72
2024/02/14 04:59:11;;;;;;;2.73;2.40;;;21.10;55.30;;;;;;5054989;28;20424;-71
2024/02/14 05:01:36;;;;;;;4.43;3.20;;;21.10;55.20;;;;;;5054630;28;20433;-71
2024/02/14 05:04:02;;;;;;;3.77;2.63;;;21.10;55.30;;;;;;5054846;28;20238;-72
2024/02/14 05:06:28;;;;;;;2.87;2.50;;;21.10;55.20;;;;;;5054787;28;20171;-71
2024/02/14 05:08:54;;;;;;;3.07;2.30;;;21.10;55.20;;;;;;5054585;28;21074;-71
2024/02/14 05:11:19;;;;;;;3.97;3.33;;;21.10;55.30;;;;;;5054272;28;20221;-71
2024/02/14 05:13:46;;;;;;;3.93;2.67;;;21.10;55.20;;;;;;5054976;28;20249;-72
2024/02/14 05:16:12;;;;;;;3.60;2.60;;;21.10;55.20;;;;;;5054885;28;20175;-71
2024/02/14 05:18:38;;;;;;;3.10;2.53;;;21.10;55.20;;;;;;5054320;28;20870;-71
2024/02/14 05:21:08;;;;;;;3.20;2.73;;;21.10;55.20;;;;;;5054494;28;20858;-71
2024/02/14 05:23:34;;;;;;;3.30;2.70;;;21.10;55.20;;;;;;5054225;28;20409;-70
2024/02/14 05:26:02;;;;;;;2.50;2.27;;;21.10;55.40;;;;;;5054504;28;20451;-71
2024/02/14 05:28:28;;;;;;;3.30;2.90;;;21.10;55.20;;;;;;5054289;28;20543;-72
2024/02/14 05:30:54;;;;;;;3.10;2.80;;;21.10;55.10;;;;;;5054036;28;20676;-72
2024/02/14 05:33:22;;;;;;;3.40;2.77;;;21.10;55.10;;;;;;5053075;28;20410;-70
2024/02/14 05:35:51;;;;;;;3.60;2.97;;;21.10;55.10;;;;;;5054520;28;20175;-71
2024/02/14 05:38:19;;;;;;;3.13;2.57;;;21.10;55.10;;;;;;5054328;28;20463;-70
2024/02/14 05:40:47;;;;;;;3.00;2.47;;;21.10;55.10;;;;;;5054049;28;20437;-71
2024/02/14 05:43:13;;;;;;;2.57;2.27;;;21.20;55.20;;;;;;5053880;28;20463;-69
2024/02/14 05:45:39;;;;;;;3.87;2.50;;;21.10;55.10;;;;;;5053954;28;20477;-71
2024/02/14 05:48:05;;;;;;;3.47;2.60;;;21.10;55.10;;;;;;5053953;28;20175;-71
2024/02/14 05:50:31;;;;;;;3.13;2.40;;;21.10;55.10;;;;;;5053811;28;20170;-69
2024/02/14 05:52:59;;;;;;;3.40;2.60;;;21.10;55.10;;;;;;5053956;28;20213;-70
2024/02/14 05:55:25;;;;;;;3.10;2.63;;;21.10;55.10;;;;;;5053552;28;20249;-69
2024/02/14 05:57:54;;;;;;;3.30;2.47;;;21.10;55.10;;;;;;5053604;28;20413;-70
2024/02/14 06:00:20;;;;;;;4.73;2.73;;;21.10;55.10;;;;;;5053309;28;20468;-70
2024/02/14 06:02:49;;;;;;;2.97;2.67;;;21.10;55.10;;;;;;5053625;28;20429;-70
2024/02/14 06:05:16;;;;;;;2.67;2.33;;;21.10;55.10;;;;;;5053544;28;20903;-70
2024/02/14 06:07:42;;;;;;;3.60;2.60;;;21.10;55.10;;;;;;5051958;28;20409;-70
2024/02/14 06:10:08;;;;;;;2.63;2.43;;;21.10;55.10;;;;;;5053531;28;20405;-69
2024/02/14 06:12:35;;;;;;;3.63;2.60;;;21.10;55.10;;;;;;5053397;28;20436;-70
2024/02/14 06:15:01;;;;;;;2.53;2.30;;;21.10;55.10;;;;;;5052800;28;20441;-71
2024/02/14 06:17:26;;;;;;;2.80;2.00;;;21.10;55.10;;;;;;5053066;28;20472;-70
2024/02/14 06:19:53;;;;;;;2.80;2.27;;;21.20;55.20;;;;;;5053056;28;20441;-70
2024/02/14 06:22:19;;;;;;;2.50;2.07;;;21.10;55.10;;;;;;5053116;28;20577;-70
2024/02/14 06:24:44;;;;;;;3.00;2.43;;;21.10;55.10;;;;;;5053222;28;20457;-70
2024/02/14 06:27:10;;;;;;;2.80;2.43;;;21.20;55.20;;;;;;5053537;28;20182;-70
2024/02/14 06:29:35;;;;;;;2.37;2.13;;;21.20;55.20;;;;;;5053087;28;20209;-70
2024/02/14 06:32:02;;;;;;;3.03;2.40;;;21.20;55.20;;;;;;5052980;28;20264;-70
2024/02/14 06:34:28;;;;;;;3.30;2.30;;;21.20;55.20;;;;;;5052766;28;20177;-70
2024/02/14 06:36:54;;;;;;;2.33;2.13;;;21.20;55.20;;;;;;5052441;28;20409;-70
2024/02/14 06:39:20;;;;;;;2.77;2.10;;;21.30;55.30;;;;;;5052839;28;20410;-69
2024/02/14 06:41:47;;;;;;;3.10;2.80;;;21.30;55.20;;;;;;5053153;28;20883;-69
2024/02/14 06:44:13;;;;;;;3.10;2.20;;;21.30;55.20;;;;;;5053114;28;20489;-70
2024/02/14 06:46:38;;;;;;;2.70;2.00;;;21.30;55.20;;;;;;5052589;28;20824;-70
2024/02/14 06:49:04;;;;;;;2.40;2.17;;;21.30;55.20;;;;;;5052937;28;20210;-70
2024/02/14 06:51:30;;;;;;;2.70;2.30;;;21.30;55.20;;;;;;5052922;28;20187;-70
2024/02/14 06:53:56;;;;;;;2.90;2.17;;;21.30;55.10;;;;;;5051384;28;20245;-69
2024/02/14 06:56:22;;;;;;;2.80;2.43;;;21.30;55.10;;;;;;5052537;28;20258;-70
2024/02/14 06:58:52;;;;;;;2.67;2.00;;;21.40;55.10;;;;;;5052691;28;20529;-70
2024/02/14 07:01:21;;;;;;;2.50;1.90;;;21.40;55.10;;;;;;5053038;28;20230;-70
2024/02/14 07:03:47;;;;;;;2.30;2.10;;;21.40;55.10;;;;;;5052420;28;20488;-70
2024/02/14 07:06:13;;;;;;;2.30;2.10;;;21.40;55.10;;;;;;5052825;28;20418;-69
2024/02/14 07:08:41;;;;;;;2.40;2.10;;;21.40;55.10;;;;;;5052784;28;20987;-70
2024/02/14 07:11:06;;;;;;;2.57;2.30;;;21.40;55.10;;;;;;5052574;28;20191;-69
2024/02/14 07:13:32;;;;;;;3.63;2.37;;;21.40;55.00;;;;;;5052336;28;20417;-70
2024/02/14 07:15:58;;;;;;;2.57;2.07;;;21.40;55.00;;;;;;5052661;28;20236;-70
2024/02/14 07:18:23;;;;;;;2.80;2.10;;;21.40;55.00;;;;;;5052273;28;20171;-70
2024/02/14 07:20:49;;;;;;;2.40;2.20;;;21.40;55.10;;;;;;5052974;28;20163;-70
2024/02/14 07:23:14;;;;;;;2.73;2.20;;;21.50;55.10;;;;;;5052477;28;20757;-70
2024/02/14 07:25:40;;;;;;;1.93;1.73;;;21.50;55.10;;;;;;5052722;28;20207;-70
2024/02/14 07:28:06;;;;;;;2.50;2.27;;;21.50;55.10;;;;;;5050680;28;20179;-70
2024/02/14 07:30:31;;;;;;;2.33;1.87;;;21.50;55.10;;;;;;5052534;28;20217;-69
2024/02/14 07:32:57;;;;;;;2.63;2.30;;;21.50;55.10;;;;;;5052360;28;20183;-70
2024/02/14 07:35:23;;;;;;;3.13;2.17;;;21.50;55.10;;;;;;5052209;28;20202;-69
2024/02/14 07:37:48;;;;;;;3.40;2.10;;;21.50;55.10;;;;;;5052469;28;20167;-70
2024/02/14 07:40:14;;;;;;;3.20;1.90;;;21.50;55.10;;;;;;5052085;28;20167;-70
2024/02/14 07:42:40;;;;;;;3.20;2.40;;;21.50;55.10;;;;;;5052942;28;20230;-68
2024/02/14 07:45:06;;;;;;;1.90;1.73;;;21.50;55.10;;;;;;5052642;28;20480;-70
2024/02/14 07:47:31;;;;;;;2.70;2.03;;;21.50;55.10;;;;;;5053307;28;20183;-70
2024/02/14 07:49:57;;;;;;;2.50;2.03;;;21.50;55.10;;;;;;5052468;28;20194;-69
2024/02/14 07:52:23;;;;;;;2.10;1.90;;;21.50;55.10;;;;;;5052234;28;20190;-68
2024/02/14 07:54:55;;;;;;;3.17;2.40;;;21.50;55.10;;;;;;5053007;28;20658;-69
2024/02/14 07:57:24;;;;;;;2.00;1.80;;;21.50;55.10;;;;;;5054139;28;20175;-69
2024/02/14 07:59:51;;;;;;;2.70;2.17;;;21.50;55.10;;;;;;5056383;28;20504;-68
2024/02/14 08:02:18;;;;;;;2.60;2.30;;;21.50;55.10;;;;;;5056297;28;20425;-70
2024/02/14 08:04:43;;;;;;;2.50;2.00;;;21.50;55.10;;;;;;5055858;28;20461;-69
2024/02/14 08:07:10;;;;;;;2.07;1.87;;;21.50;55.10;;;;;;5056293;28;20412;-70
2024/02/14 08:09:36;;;;;;;2.70;2.20;;;21.50;55.10;;;;;;5056325;28;20677;-69
2024/02/14 08:12:01;;;;;;;2.30;2.10;;;21.50;55.10;;;;;;5055905;28;20603;-70
2024/02/14 08:14:27;;;;;;;2.40;2.03;;;21.50;55.10;;;;;;5055582;28;21054;-69
2024/02/14 08:16:52;;;;;;;3.20;2.20;;;21.50;55.10;;;;;;5056092;28;20179;-70
2024/02/14 08:19:18;;;;;;;3.40;2.93;;;21.50;55.10;;;;;;5055998;28;20187;-70
2024/02/14 08:21:45;;;;;;;2.73;2.20;;;21.50;55.10;;;;;;5056157;28;20206;-69
2024/02/14 08:24:10;;;;;;;2.67;1.90;;;21.50;55.10;;;;;;5055630;28;20203;-70
2024/02/14 08:26:36;;;;;;;2.17;1.67;;;21.50;55.10;;;;;;5055544;28;20406;-71
2024/02/14 08:29:03;;;;;;;2.67;1.80;;;21.50;55.10;;;;;;5055878;28;20167;-70
2024/02/14 08:31:28;;;;;;;3.20;2.40;;;21.50;55.10;;;;;;5055589;28;20193;-70
2024/02/14 08:33:54;;;;;;;2.70;2.23;;;21.50;55.10;;;;;;5055494;28;20496;-70
2024/02/14 08:36:20;;;;;;;2.37;2.03;;;21.50;55.10;;;;;;5054868;28;20173;-70
2024/02/14 08:38:46;;;;;;;2.83;2.30;;;21.50;55.10;;;;;;5055299;28;21226;-70
2024/02/14 08:41:12;;;;;;;2.93;2.47;;;21.50;55.10;;;;;;5053844;28;20689;-70
2024/02/14 08:43:38;;;;;;;2.10;1.90;;;21.50;55.10;;;;;;5055104;28;20183;-70
2024/02/14 08:46:12;;;;;;;4.30;2.50;;;21.50;55.10;;;;;;5053998;28;21004;-70
2024/02/14 08:48:45;;;;;;;2.63;2.30;;;21.50;55.10;;;;;;5055256;28;20202;-70
2024/02/14 08:51:12;;;;;;;2.30;1.87;;;21.50;55.10;;;;;;5054463;28;20441;-70
2024/02/14 08:53:37;;;;;;;3.37;2.00;;;21.50;55.10;;;;;;5054864;28;20409;-70
2024/02/14 08:56:03;;;;;;;2.37;2.07;;;21.50;55.10;;;;;;5054871;28;20402;-70
2024/02/14 08:58:29;;;;;;;2.07;1.73;;;21.50;55.10;;;;;;5055477;28;20594;-71
2024/02/14 09:00:54;;;;;;;3.03;2.73;;;21.50;55.10;;;;;;5054687;28;20650;-71
2024/02/14 09:03:20;;;;;;;2.33;2.03;;;21.50;55.10;;;;;;5055021;28;20260;-71
2024/02/14 09:05:46;;;;;;;2.13;1.93;;;21.50;55.10;;;;;;5054724;28;20209;-70
2024/02/14 09:08:12;;;;;;;2.57;2.20;;;21.50;55.10;;;;;;5053236;28;20178;-70
2024/02/14 09:10:38;;;;;;;3.77;2.00;;;21.50;55.10;;;;;;5054509;28;20923;-69
2024/02/14 09:13:04;;;;;;;2.30;2.00;;;21.50;55.20;;;;;;5054562;28;20432;-70
2024/02/14 09:15:31;;;;;;;3.87;2.37;;;21.50;55.10;;;;;;5054405;28;20175;-71
2024/02/14 09:17:57;;;;;;;2.90;2.10;;;21.50;55.10;;;;;;5054686;28;20417;-69
2024/02/14 09:20:22;;;;;;;2.00;1.77;;;21.50;55.10;;;;;;5054501;28;20449;-70
2024/02/14 09:22:48;;;;;;;3.43;2.20;;;21.50;55.10;;;;;;5054482;28;20483;-70
2024/02/14 09:25:14;;;;;;;2.47;2.10;;;21.50;55.10;;;;;;5054744;28;20210;-69
2024/02/14 09:27:41;;;;;;;5.07;2.40;;;21.50;55.10;;;;;;5054174;28;20609;-71
2024/02/14 09:30:07;;;;;;;3.27;2.30;;;21.50;55.10;;;;;;5054614;28;20406;-71
2024/02/14 09:32:33;;;;;;;3.03;2.30;;;21.50;55.10;;;;;;5053966;28;20445;-71
2024/02/14 09:34:59;;;;;;;2.33;2.03;;;21.50;55.20;;;;;;5053884;28;20452;-70
2024/02/14 09:37:25;;;;;;;2.10;1.80;;;21.50;55.10;;;;;;5054172;28;20525;-71
2024/02/14 09:39:51;;;;;;;2.13;1.93;;;21.50;55.10;;;;;;5053954;28;20413;-71
2024/02/14 09:42:22;;;;;;;2.60;2.40;;;21.50;55.20;;;;;;5053748;28;20476;-70
2024/02/14 09:44:52;;;;;;;2.37;1.73;;;21.50;55.20;;;;;;5054351;28;20602;-70
2024/02/14 09:47:19;;;;;;;4.07;2.23;;;21.50;55.20;;;;;;5054367;28;20898;-69
2024/02/14 09:49:45;;;;;;;3.23;2.43;;;21.50;55.20;;;;;;5054400;28;20412;-72
2024/02/14 09:52:12;;;;;;;3.37;2.13;;;21.50;55.20;;;;;;5054181;28;20430;-69
2024/02/14 09:54:39;;;;;;;3.63;2.43;;;21.50;55.30;;;;;;5054180;28;20459;-71
2024/02/14 09:57:05;;;;;;;4.00;2.27;;;21.50;55.30;;;;;;5053846;28;20418;-70
2024/02/14 09:59:32;;;;;;;4.00;2.30;;;21.50;55.20;;;;;;5054258;28;20417;-70
2024/02/14 10:01:58;;;;;;;5.20;2.50;;;21.50;55.20;;;;;;5053532;28;20437;-70
2024/02/14 10:04:24;;;;;;;2.47;2.13;;;21.50;55.20;;;;;;5053378;28;20485;-70
2024/02/14 10:06:51;;;;;;;2.20;2.00;;;21.50;55.20;;;;;;5054087;28;20413;-70
2024/02/14 10:09:25;;;;;;;2.97;2.20;;;21.50;55.20;;;;;;5053488;28;20405;-70
2024/02/14 10:11:51;;;;;;;5.40;2.47;;;21.50;55.20;;;;;;5051867;28;20471;-71
2024/02/14 10:14:17;;;;;;;3.80;2.07;;;21.50;55.30;;;;;;5053452;28;21090;-70
2024/02/14 10:16:42;;;;;;;4.40;1.87;;;21.50;55.30;;;;;;5053659;28;20409;-70
2024/02/14 10:19:26;;;;;;;3.27;2.20;;;21.50;55.30;;;;;;5052549;28;20191;-70
2024/02/14 10:21:59;;;;;;;3.70;2.20;;;21.50;55.30;;;;;;5052746;28;20285;-71
2024/02/14 10:24:27;;;;;;;2.57;1.90;;;21.50;55.30;;;;;;5053247;28;20984;-70
2024/02/14 10:26:53;;;;;;;4.07;2.07;;;21.50;55.30;;;;;;5053260;28;21285;-69
2024/02/14 10:29:20;;;;;;;3.20;2.17;;;21.50;55.40;;;;;;5053216;28;20489;-70
2024/02/14 10:31:46;;;;;;;2.07;1.87;;;21.50;55.40;;;;;;5053511;28;20248;-70
2024/02/14 10:34:12;;;;;;;3.23;2.07;;;21.50;55.40;;;;;;5053360;28;20410;-70
2024/02/14 10:36:40;;;;;;;5.70;2.17;;;21.50;55.40;;;;;;5053737;28;20248;-70
2024/02/14 10:39:07;;;;;;;3.73;2.77;;;21.50;55.40;;;;;;5053649;28;20441;-69
2024/02/14 10:41:35;;;;;;;3.97;2.40;;;21.50;55.40;;;;;;5052490;28;20437;-71
2024/02/14 10:44:05;;;;;;;2.50;2.07;;;21.50;55.40;;;;;;5053362;28;20483;-71
2024/02/14 10:46:33;;;;;;;1.93;1.83;;;21.50;55.40;;;;;;5053482;28;20873;-70
2024/02/14 10:49:04;;;;;;;2.63;2.10;;;21.50;55.40;;;;;;5053130;28;20427;-69
2024/02/14 10:51:33;;;;;;;3.57;2.30;;;21.50;55.40;;;;;;5052846;28;20456;-70
2024/02/14 10:54:00;;;;;;;2.03;1.73;;;21.50;55.40;;;;;;5052974;28;20488;-70
2024/02/14 10:56:28;;;;;;;4.43;2.20;;;21.50;55.40;;;;;;5052976;28;20413;-69
2024/02/14 10:58:58;;;;;;;3.40;2.37;;;21.50;55.40;;;;;;5053119;28;20430;-70
2024/02/14 11:01:26;;;;;;;3.97;2.37;;;21.50;55.40;;;;;;5052716;28;21005;-71
2024/02/14 11:03:52;;;;;;;2.60;2.10;;;21.50;55.40;;;;;;5053205;28;20457;-70
2024/02/14 11:06:18;;;;;;;3.03;2.00;;;21.50;55.40;;;;;;5052869;28;20805;-71
2024/02/14 11:08:56;;;;;;;2.60;1.83;;;21.50;55.40;;;;;;5052692;28;21009;-70
2024/02/14 11:11:23;;;;;;;2.90;1.83;;;21.50;55.40;;;;;;5052461;28;20643;-70
2024/02/14 11:13:55;;;;;;;3.27;2.20;;;21.40;55.30;;;;;;5052825;28;20449;-70
2024/02/14 11:16:32;;;;;;;2.83;2.10;;;21.40;55.30;;;;;;5053029;28;20476;-70
2024/02/14 11:19:08;;;;;;;5.33;2.47;;;21.40;55.30;;;;;;5052975;28;20425;-70
2024/02/14 11:21:36;;;;;;;3.70;2.30;;;21.40;55.40;;;;;;5052971;28;21196;-69
2024/02/14 11:24:09;;;;;;;2.37;2.10;;;21.40;55.40;;;;;;5053011;28;20461;-68
2024/02/14 11:26:48;;;;;;;2.30;1.90;;;21.50;55.40;;;;;;5053116;28;20413;-71
2024/02/14 11:29:18;;;;;;;2.63;1.80;;;21.40;55.40;;;;;;5052668;28;20463;-70
2024/02/14 11:31:45;;;;;;;4.20;2.30;;;21.40;55.40;;;;;;5053596;28;20461;-69
2024/02/14 11:34:17;;;;;;;2.57;2.30;;;21.40;55.40;;;;;;5056757;28;20433;-70
2024/02/14 11:36:44;;;;;;;3.20;2.70;;;21.40;55.30;;;;;;5057766;28;20409;-70
2024/02/14 11:39:12;;;;;;;2.50;1.87;;;21.40;55.40;;;;;;5057619;28;20788;-70
2024/02/14 11:41:38;;;;;;;2.77;2.03;;;21.40;55.40;;;;;;5057681;28;20466;-71
2024/02/14 11:44:06;;;;;;;2.90;2.00;;;21.40;55.40;;;;;;5057007;28;20460;-69
2024/02/14 11:46:34;;;;;;;3.63;1.90;;;21.40;55.40;;;;;;5057395;28;20405;-71
2024/02/14 11:49:01;;;;;;;3.10;2.20;;;21.40;55.40;;;;;;5056906;28;20955;-70
2024/02/14 11:51:28;;;;;;;2.90;2.07;;;21.40;55.40;;;;;;5056642;28;20421;-68
2024/02/14 11:53:54;;;;;;;4.13;2.23;;;21.40;55.50;;;;;;5056721;28;20427;-70
2024/02/14 11:56:22;;;;;;;2.97;1.97;;;21.40;55.40;;;;;;5056605;28;20492;-68
2024/02/14 11:58:50;;;;;;;2.03;1.77;;;21.40;55.40;;;;;;5056544;28;20437;-69
2024/02/14 12:01:17;;;;;;;2.50;1.70;;;21.40;55.40;;;;;;5056387;28;20433;-70
2024/02/14 12:03:44;;;;;;;2.43;1.80;;;21.40;55.40;;;;;;5056477;28;20406;-70
2024/02/14 12:06:10;;;;;;;2.73;1.70;;;21.40;55.40;;;;;;5056292;28;20496;-70
2024/02/14 12:08:37;;;;;;;3.00;2.70;;;21.40;55.40;;;;;;5056005;28;20416;-70
2024/02/14 12:11:03;;;;;;;2.67;2.10;;;21.40;55.40;;;;;;5056265;28;20415;-70
2024/02/14 12:13:32;;;;;;;4.43;2.43;;;21.40;55.40;;;;;;5055981;28;20484;-69
2024/02/14 12:15:58;;;;;;;3.97;2.23;;;21.40;55.40;;;;;;5056644;28;20496;-69
2024/02/14 12:18:23;;;;;;;2.90;2.00;;;21.40;55.40;;;;;;5055730;28;20936;-69
2024/02/14 12:20:50;;;;;;;2.90;2.07;;;21.40;55.40;;;;;;5056087;28;20266;-69
2024/02/14 12:23:17;;;;;;;4.60;1.90;;;21.40;55.50;;;;;;5056013;28;20167;-70
2024/02/14 12:25:43;;;;;;;3.43;2.10;;;21.40;55.40;;;;;;5055727;28;20449;-68
2024/02/14 12:28:17;;;;;;;2.93;1.83;;;21.40;55.40;;;;;;5055535;28;20934;-67
2024/02/14 12:30:49;;;;;;;2.50;1.70;;;21.40;55.40;;;;;;5056048;28;20401;-70
2024/02/14 12:33:16;;;;;;;3.20;1.97;;;21.40;55.40;;;;;;5055619;28;20413;-69
2024/02/14 12:35:46;;;;;;;2.30;1.70;;;21.40;55.40;;;;;;5055786;28;20417;-70
2024/02/14 12:38:13;;;;;;;2.33;1.97;;;21.40;55.30;;;;;;5055941;28;20459;-70
2024/02/14 12:40:44;;;;;;;3.40;2.10;;;21.40;55.40;;;;;;5056228;28;20444;-70
2024/02/14 12:43:14;;;;;;;2.73;1.97;;;21.40;55.40;;;;;;5054619;28;20441;-71
2024/02/14 12:45:41;;;;;;;3.10;2.47;;;21.30;55.30;;;;;;5055289;28;20449;-70